Time;durP1;ratioP1;P1;durP2;ratioP2;P2;SDS_P1;SDS_P2;PMS_P1;PMS_P2;Temp;Humidity;BMP_temperature;BMP_pressure;BME280_temperature;BME280_humidity;BME280_pressure;Samples;Min_cycle;Max_cycle;Signal;HPM_P1;HPM_P2
2023/06/12 00:01:59;;;;;;;5.53;4.95;;;24.30;65.50;;;;;;10491650;28;20013;-71
2023/06/12 00:07:04;;;;;;;7.28;5.50;;;24.30;65.60;;;;;;10497087;28;20024;-71
2023/06/12 00:12:05;;;;;;;6.28;4.82;;;24.30;65.60;;;;;;10481386;28;20048;-71
2023/06/12 00:17:06;;;;;;;7.47;5.28;;;24.20;65.60;;;;;;10489020;28;20701;-70
2023/06/12 00:22:06;;;;;;;6.82;5.57;;;24.10;65.60;;;;;;10488091;28;20016;-71
2023/06/12 00:27:07;;;;;;;5.82;5.20;;;24.10;65.60;;;;;;10486452;28;20073;-71
2023/06/12 00:32:08;;;;;;;7.07;5.40;;;24.10;65.70;;;;;;10487288;28;20377;-71
2023/06/12 00:37:08;;;;;;;7.00;5.35;;;24.10;65.70;;;;;;10494022;28;20159;-72
2023/06/12 00:42:10;;;;;;;6.70;5.60;;;24.10;65.80;;;;;;10491580;28;20020;-71
2023/06/12 00:47:11;;;;;;;7.13;5.38;;;24.00;65.70;;;;;;10496446;28;20020;-71
2023/06/12 00:52:12;;;;;;;5.82;5.20;;;24.00;65.70;;;;;;10490958;28;20544;-71
2023/06/12 00:57:13;;;;;;;7.30;5.30;;;23.90;65.70;;;;;;10493230;28;20025;-71
2023/06/12 01:02:13;;;;;;;6.38;5.53;;;24.00;65.80;;;;;;10485704;28;20119;-71
2023/06/12 01:07:40;;;;;;;8.68;5.68;;;23.90;66.40;;;;;;10492460;28;20488;-71
2023/06/12 01:12:43;;;;;;;6.03;5.33;;;23.80;65.70;;;;;;10494847;28;20054;-71
2023/06/12 01:17:43;;;;;;;6.32;5.38;;;23.80;65.70;;;;;;10483887;28;20020;-71
2023/06/12 01:23:22;;;;;;;6.85;5.10;;;23.70;65.70;;;;;;10484850;28;20468;-71
2023/06/12 01:28:49;;;;;;;7.53;5.43;;;23.70;65.60;;;;;;10440134;28;20317;-71
2023/06/12 01:33:56;;;;;;;6.75;5.00;;;23.70;65.90;;;;;;10482189;28;20524;-71
2023/06/12 01:38:59;;;;;;;8.53;5.67;;;23.60;65.80;;;;;;10487930;28;20085;-71
2023/06/12 01:44:09;;;;;;;6.22;4.75;;;23.60;65.90;;;;;;10480910;28;20058;-71
2023/06/12 01:49:10;;;;;;;5.70;4.65;;;23.50;65.80;;;;;;10491220;28;20028;-71
2023/06/12 01:54:11;;;;;;;5.57;4.72;;;23.50;65.90;;;;;;10480003;28;20024;-71
2023/06/12 01:59:11;;;;;;;5.85;4.72;;;23.40;65.80;;;;;;10484335;28;20534;-72
2023/06/12 02:04:12;;;;;;;7.82;4.68;;;23.40;65.90;;;;;;10483216;28;20074;-71
2023/06/12 02:09:13;;;;;;;6.55;4.53;;;23.40;65.90;;;;;;10483654;28;20116;-71
2023/06/12 02:14:13;;;;;;;6.47;4.57;;;23.40;66.00;;;;;;10476724;28;20064;-72
2023/06/12 02:19:14;;;;;;;5.47;4.10;;;23.30;66.00;;;;;;10490123;28;20024;-72
2023/06/12 02:24:15;;;;;;;5.22;4.20;;;23.30;66.00;;;;;;10473946;28;20035;-71
2023/06/12 02:29:16;;;;;;;5.30;3.97;;;23.20;66.00;;;;;;10487641;28;20081;-71
2023/06/12 02:34:16;;;;;;;8.00;3.92;;;23.20;66.00;;;;;;10494554;28;20028;-71
2023/06/12 02:39:18;;;;;;;4.80;3.80;;;23.20;66.10;;;;;;10487759;28;20427;-71
2023/06/12 02:44:19;;;;;;;5.15;4.00;;;23.20;66.10;;;;;;10489000;28;20039;-71
2023/06/12 02:49:21;;;;;;;4.95;3.50;;;23.10;66.10;;;;;;10501576;28;20024;-71
2023/06/12 02:54:24;;;;;;;6.70;3.50;;;23.10;66.10;;;;;;10497961;28;20049;-71
2023/06/12 02:59:25;;;;;;;4.53;3.55;;;23.00;66.10;;;;;;10490000;28;20020;-72
2023/06/12 03:04:27;;;;;;;7.40;3.65;;;22.90;66.20;;;;;;10498428;28;20033;-72
2023/06/12 03:09:28;;;;;;;5.47;3.40;;;23.00;66.20;;;;;;10489377;28;20027;-72
2023/06/12 03:14:28;;;;;;;5.45;3.42;;;22.90;66.20;;;;;;10489842;28;20035;-71
2023/06/12 03:19:29;;;;;;;4.35;3.45;;;22.90;66.30;;;;;;10478922;28;20459;-72
2023/06/12 03:24:30;;;;;;;4.75;3.40;;;22.90;66.30;;;;;;10489554;28;20032;-71
2023/06/12 03:29:30;;;;;;;5.70;3.35;;;22.90;66.40;;;;;;10484662;28;20050;-72
2023/06/12 03:34:31;;;;;;;5.00;3.45;;;22.80;66.40;;;;;;10493717;28;20025;-71
2023/06/12 03:39:32;;;;;;;4.53;3.42;;;22.80;66.40;;;;;;10487386;28;20036;-72
2023/06/12 03:44:32;;;;;;;3.72;3.08;;;22.80;66.40;;;;;;10481890;28;20201;-72
2023/06/12 03:49:33;;;;;;;8.38;3.30;;;22.80;66.50;;;;;;10494604;28;20039;-72
2023/06/12 03:54:34;;;;;;;4.60;3.08;;;22.70;66.50;;;;;;10483373;28;20102;-71
2023/06/12 03:59:35;;;;;;;3.85;2.90;;;22.70;66.50;;;;;;10495099;28;20033;-71
2023/06/12 04:04:35;;;;;;;4.10;2.90;;;22.70;66.60;;;;;;10483600;28;20017;-71
2023/06/12 04:09:36;;;;;;;4.95;2.90;;;22.60;66.60;;;;;;10483224;28;20066;-71
2023/06/12 04:14:36;;;;;;;4.13;3.00;;;22.60;66.70;;;;;;10476810;28;20155;-71
2023/06/12 04:19:39;;;;;;;5.60;3.15;;;22.50;66.70;;;;;;10488671;28;20029;-71
2023/06/12 04:24:42;;;;;;;3.97;2.88;;;22.60;66.80;;;;;;10490026;28;20469;-71
2023/06/12 04:29:42;;;;;;;3.67;2.70;;;22.50;66.80;;;;;;10485477;28;20079;-72
2023/06/12 04:34:45;;;;;;;6.65;2.92;;;22.50;66.80;;;;;;10492052;28;20089;-71
2023/06/12 04:39:45;;;;;;;4.05;3.20;;;22.50;66.90;;;;;;10499728;28;20031;-71
2023/06/12 04:44:46;;;;;;;5.65;3.33;;;22.40;66.90;;;;;;10477396;28;20515;-71
2023/06/12 04:49:47;;;;;;;4.68;3.03;;;22.40;66.90;;;;;;10492524;28;20528;-70
2023/06/12 04:54:48;;;;;;;4.05;2.80;;;22.40;67.00;;;;;;10487085;28;20065;-71
2023/06/12 04:59:48;;;;;;;4.32;3.30;;;22.40;67.00;;;;;;10492320;28;20017;-71
2023/06/12 05:04:49;;;;;;;5.05;3.10;;;22.40;67.10;;;;;;10494114;28;20044;-70
2023/06/12 05:09:50;;;;;;;3.83;2.65;;;22.40;67.20;;;;;;10475819;28;20083;-70
2023/06/12 05:14:50;;;;;;;5.78;2.92;;;22.40;67.20;;;;;;10468000;28;20506;-71
2023/06/12 05:19:51;;;;;;;3.78;2.75;;;22.30;67.20;;;;;;10462244;28;20027;-71
2023/06/12 05:24:51;;;;;;;4.97;2.85;;;22.30;67.30;;;;;;10477762;28;20386;-70
2023/06/12 05:29:52;;;;;;;5.05;3.10;;;22.30;67.30;;;;;;10485854;28;20028;-71
2023/06/12 05:34:53;;;;;;;7.80;3.20;;;22.30;67.30;;;;;;10475564;28;20030;-71
2023/06/12 05:39:53;;;;;;;4.18;3.60;;;22.30;67.40;;;;;;10479503;28;20025;-71
2023/06/12 05:44:54;;;;;;;4.22;2.97;;;22.30;67.40;;;;;;10478168;28;20017;-70
2023/06/12 05:49:54;;;;;;;3.33;2.60;;;22.30;67.50;;;;;;10475534;28;20454;-71
2023/06/12 05:54:55;;;;;;;6.75;3.13;;;22.30;67.50;;;;;;10462586;28;20484;-70
2023/06/12 05:59:56;;;;;;;3.80;2.90;;;22.30;67.50;;;;;;10472057;28;20720;-71
2023/06/12 06:04:57;;;;;;;3.50;2.97;;;22.30;67.60;;;;;;10464074;28;20052;-72
2023/06/12 06:09:57;;;;;;;5.53;3.10;;;22.30;67.60;;;;;;10466284;28;20116;-73
2023/06/12 06:14:58;;;;;;;5.60;2.88;;;22.30;67.70;;;;;;10476577;28;20033;-70
2023/06/12 06:19:59;;;;;;;4.82;3.17;;;22.30;67.70;;;;;;10483794;28;20009;-70
2023/06/12 06:25:04;;;;;;;4.20;2.63;;;22.20;67.70;;;;;;10481090;28;20472;-69
2023/06/12 06:30:05;;;;;;;4.57;2.80;;;22.30;67.70;;;;;;10483757;28;20505;-69
2023/06/12 06:35:06;;;;;;;4.90;3.05;;;22.30;67.70;;;;;;10485371;28;20036;-68
2023/06/12 06:40:08;;;;;;;3.60;2.63;;;22.30;67.70;;;;;;10483378;28;20024;-68
2023/06/12 06:45:10;;;;;;;5.65;2.97;;;22.30;67.80;;;;;;10481668;28;20084;-71
2023/06/12 06:50:11;;;;;;;5.63;3.60;;;22.30;68.00;;;;;;10482291;28;20044;-71
2023/06/12 06:55:11;;;;;;;7.72;3.97;;;22.20;68.40;;;;;;10487719;28;20219;-72
2023/06/12 07:00:13;;;;;;;7.22;4.07;;;22.10;69.30;;;;;;10487355;28;20111;-70
2023/06/12 07:05:14;;;;;;;7.30;3.88;;;22.10;69.60;;;;;;10482934;28;20025;-70
2023/06/12 07:10:15;;;;;;;10.70;4.82;;;22.00;70.50;;;;;;10482449;28;20040;-71
2023/06/12 07:15:16;;;;;;;5.70;4.00;;;22.00;70.20;;;;;;10485134;28;20035;-71
2023/06/12 07:20:17;;;;;;;8.95;4.32;;;22.00;70.30;;;;;;10480443;28;20032;-70
2023/06/12 07:25:17;;;;;;;6.55;4.20;;;21.90;71.00;;;;;;10489558;28;20036;-71
2023/06/12 07:30:18;;;;;;;9.20;5.00;;;22.00;70.40;;;;;;10481932;28;20275;-70
2023/06/12 07:35:19;;;;;;;6.28;3.60;;;22.10;70.70;;;;;;10482186;28;20025;-70
2023/06/12 07:40:20;;;;;;;7.50;4.07;;;22.10;70.70;;;;;;10495570;28;20434;-70
2023/06/12 07:45:21;;;;;;;6.97;4.40;;;22.20;70.70;;;;;;10482070;28;20094;-71
2023/06/12 07:50:22;;;;;;;11.93;4.75;;;22.30;70.80;;;;;;10487202;28;20082;-70
2023/06/12 07:55:23;;;;;;;10.25;4.50;;;22.40;71.20;;;;;;10480713;28;20107;-70
2023/06/12 08:00:26;;;;;;;7.00;4.20;;;22.40;71.10;;;;;;10474462;28;20023;-71
2023/06/12 08:05:28;;;;;;;8.43;3.97;;;22.50;71.30;;;;;;10482939;28;20036;-70
2023/06/12 08:10:28;;;;;;;6.60;4.78;;;22.60;71.20;;;;;;10482821;28;20028;-70
2023/06/12 08:15:29;;;;;;;8.55;4.55;;;22.70;71.00;;;;;;10483959;28;20492;-71
2023/06/12 08:20:30;;;;;;;6.35;4.88;;;22.80;70.50;;;;;;10491423;28;20040;-70
2023/06/12 08:25:32;;;;;;;7.25;4.68;;;22.90;70.50;;;;;;10486036;28;20027;-70
2023/06/12 08:30:33;;;;;;;7.53;4.68;;;23.00;70.70;;;;;;10487261;28;20067;-71
2023/06/12 08:35:35;;;;;;;11.13;5.00;;;23.30;70.50;;;;;;10488987;28;20103;-70
2023/06/12 08:40:36;;;;;;;8.05;4.65;;;23.30;70.60;;;;;;10488915;28;20039;-70
2023/06/12 08:45:45;;;;;;;7.35;4.95;;;23.50;70.20;;;;;;10480617;28;20032;-70
2023/06/12 08:50:47;;;;;;;8.50;5.25;;;23.60;69.70;;;;;;10478912;28;20092;-70
2023/06/12 08:55:50;;;;;;;8.82;5.07;;;23.70;70.20;;;;;;10487617;28;20029;-70
2023/06/12 09:00:50;;;;;;;11.70;4.68;;;23.80;69.80;;;;;;10486580;28;20013;-70
2023/06/12 09:05:52;;;;;;;7.15;4.93;;;24.00;69.40;;;;;;10478941;28;20025;-72
2023/06/12 09:10:53;;;;;;;8.63;5.10;;;24.10;68.80;;;;;;10484701;28;20170;-70
2023/06/12 09:15:55;;;;;;;12.13;5.38;;;24.20;68.90;;;;;;10480351;28;20078;-71
2023/06/12 09:20:56;;;;;;;7.90;5.25;;;24.20;69.00;;;;;;10485082;28;20516;-71
2023/06/12 09:25:57;;;;;;;6.22;4.75;;;24.40;69.10;;;;;;10474520;28;20024;-69
2023/06/12 09:30:57;;;;;;;12.48;5.30;;;24.50;68.80;;;;;;10482621;28;20028;-70
2023/06/12 09:35:59;;;;;;;10.70;5.15;;;24.50;68.50;;;;;;10479089;28;20040;-71
2023/06/12 09:41:03;;;;;;;10.32;5.63;;;24.60;68.50;;;;;;10484961;28;20476;-70
2023/06/12 09:46:06;;;;;;;12.02;6.13;;;24.80;67.60;;;;;;10479184;28;20025;-70
2023/06/12 09:51:09;;;;;;;7.07;5.30;;;24.90;66.80;;;;;;10477395;28;20032;-71
2023/06/12 09:56:10;;;;;;;8.75;5.90;;;25.00;66.20;;;;;;10487988;28;20063;-71
2023/06/12 10:01:11;;;;;;;8.15;5.55;;;25.20;66.50;;;;;;10492518;28;20039;-71
2023/06/12 10:06:13;;;;;;;7.75;5.57;;;25.20;66.20;;;;;;10481509;28;20021;-71
2023/06/12 10:11:15;;;;;;;9.25;5.93;;;25.30;65.90;;;;;;10471064;28;20066;-71
2023/06/12 10:16:17;;;;;;;10.50;6.15;;;25.40;65.20;;;;;;10467531;28;20111;-70
2023/06/12 10:21:20;;;;;;;9.52;6.35;;;25.50;64.80;;;;;;10470872;28;20031;-72
2023/06/12 10:26:22;;;;;;;9.27;6.30;;;25.60;64.50;;;;;;10476635;28;20082;-72
2023/06/12 10:31:23;;;;;;;8.85;6.15;;;25.70;63.60;;;;;;10484321;28;20052;-72
2023/06/12 10:36:24;;;;;;;8.45;6.28;;;25.80;63.30;;;;;;10481518;28;20480;-71
2023/06/12 10:41:32;;;;;;;7.63;5.88;;;26.00;62.70;;;;;;10476639;28;20013;-71
2023/06/12 10:46:45;;;;;;;7.90;5.97;;;26.10;61.40;;;;;;10481498;28;20044;-71
2023/06/12 10:51:50;;;;;;;7.53;5.90;;;26.10;61.30;;;;;;10474691;28;20020;-71
2023/06/12 10:57:02;;;;;;;7.05;5.00;;;26.10;61.60;;;;;;10481009;28;20021;-70
2023/06/12 11:02:03;;;;;;;7.47;5.47;;;26.10;60.20;;;;;;10483060;28;20067;-70
2023/06/12 11:07:05;;;;;;;9.27;6.00;;;26.10;60.40;;;;;;10491867;28;20029;-71
2023/06/12 11:12:07;;;;;;;8.73;6.13;;;26.20;60.30;;;;;;10486129;28;20123;-71
2023/06/12 11:17:08;;;;;;;7.50;5.97;;;26.30;60.20;;;;;;10488279;28;20078;-71
2023/06/12 11:22:08;;;;;;;8.10;5.78;;;26.40;59.90;;;;;;10487028;28;20074;-70
2023/06/12 11:27:09;;;;;;;8.25;5.68;;;26.70;59.40;;;;;;10483662;28;20029;-71
2023/06/12 11:32:10;;;;;;;9.05;6.45;;;26.80;59.30;;;;;;10483418;28;20103;-70
2023/06/12 11:37:19;;;;;;;7.70;6.13;;;26.90;59.10;;;;;;10494857;28;20498;-70
2023/06/12 11:42:20;;;;;;;9.75;6.07;;;27.00;58.30;;;;;;10484289;28;20031;-69
2023/06/12 11:47:20;;;;;;;9.35;6.30;;;27.00;58.90;;;;;;10486128;28;20031;-67
2023/06/12 11:52:22;;;;;;;9.15;6.20;;;27.00;58.90;;;;;;10472646;28;20047;-69
2023/06/12 11:57:26;;;;;;;9.00;6.35;;;27.00;59.10;;;;;;10483391;28;20463;-70
2023/06/12 12:02:32;;;;;;;10.48;6.13;;;27.00;58.90;;;;;;10483072;28;20519;-70
2023/06/12 12:07:35;;;;;;;7.60;6.28;;;27.10;59.00;;;;;;10478735;28;20032;-71
2023/06/12 12:12:44;;;;;;;7.90;5.78;;;27.10;59.10;;;;;;10478374;28;20028;-71
2023/06/12 12:17:45;;;;;;;7.25;5.85;;;27.30;57.00;;;;;;10468619;28;20028;-70
2023/06/12 12:23:12;;;;;;;6.80;5.93;;;27.40;57.20;;;;;;10483865;28;20081;-70
2023/06/12 12:28:13;;;;;;;6.82;6.10;;;27.50;57.00;;;;;;10481325;28;20028;-70
2023/06/12 12:33:13;;;;;;;9.30;5.68;;;27.60;56.70;;;;;;10474869;28;20415;-70
2023/06/12 12:38:14;;;;;;;6.88;5.93;;;27.70;56.20;;;;;;10482856;28;20029;-71
2023/06/12 12:43:15;;;;;;;6.93;5.40;;;27.90;56.40;;;;;;10480003;28;20037;-71
2023/06/12 12:48:15;;;;;;;7.35;5.47;;;28.00;56.20;;;;;;10485914;28;20105;-70
2023/06/12 12:53:16;;;;;;;6.18;5.20;;;28.10;56.50;;;;;;10480263;28;20244;-70
2023/06/12 12:58:17;;;;;;;5.10;4.57;;;28.20;56.20;;;;;;10486455;28;20096;-69
2023/06/12 13:03:18;;;;;;;10.05;5.25;;;28.30;56.60;;;;;;10482034;28;20475;-70
2023/06/12 13:08:19;;;;;;;6.03;5.43;;;28.50;56.30;;;;;;10488788;28;20019;-70
2023/06/12 13:13:20;;;;;;;7.10;5.00;;;28.50;56.70;;;;;;10472611;28;20282;-70
2023/06/12 13:18:21;;;;;;;5.32;4.75;;;28.60;56.20;;;;;;10488578;28;20027;-70
2023/06/12 13:23:22;;;;;;;6.68;5.10;;;28.90;55.50;;;;;;10482053;28;20495;-70
2023/06/12 13:28:22;;;;;;;6.32;5.38;;;29.10;55.00;;;;;;10485776;28;20277;-70
2023/06/12 13:33:23;;;;;;;10.73;5.32;;;29.30;54.70;;;;;;10490445;28;20188;-70
2023/06/12 13:38:24;;;;;;;6.43;5.10;;;29.40;54.40;;;;;;10465195;28;20278;-70
2023/06/12 13:43:24;;;;;;;7.90;5.60;;;29.30;54.30;;;;;;10483637;28;20093;-69
2023/06/12 13:48:26;;;;;;;7.13;5.05;;;29.30;54.80;;;;;;10482204;28;20028;-69
2023/06/12 13:53:32;;;;;;;;;;;29.30;55.00;;;;;;10478768;28;20021;-72
2023/06/12 13:58:33;;;;;;;6.78;5.28;;;29.40;54.20;;;;;;10480188;28;19912;-71
2023/06/12 14:03:33;;;;;;;8.93;5.30;;;29.50;55.10;;;;;;10477323;28;20024;-71
2023/06/12 14:08:40;;;;;;;6.25;5.50;;;29.70;54.50;;;;;;10476358;28;20492;-71
2023/06/12 14:13:41;;;;;;;7.97;6.00;;;29.90;54.10;;;;;;10484386;28;20089;-70
2023/06/12 14:18:42;;;;;;;9.63;5.95;;;30.10;53.60;;;;;;10484609;28;20069;-69
2023/06/12 14:23:45;;;;;;;7.05;5.75;;;30.10;53.50;;;;;;10469903;28;20063;-71
2023/06/12 14:28:46;;;;;;;6.85;5.50;;;30.20;53.20;;;;;;10469380;28;20020;-72
2023/06/12 14:33:46;;;;;;;6.15;5.47;;;30.10;52.90;;;;;;10484192;28;20130;-72
2023/06/12 14:38:47;;;;;;;8.75;5.85;;;30.20;53.10;;;;;;10471234;28;20052;-72
2023/06/12 14:43:47;;;;;;;6.80;5.70;;;30.20;52.90;;;;;;10489671;28;20661;-72
2023/06/12 14:48:48;;;;;;;10.15;6.30;;;30.10;52.60;;;;;;10500321;28;20040;-69
2023/06/12 14:53:49;;;;;;;8.48;5.57;;;30.20;52.40;;;;;;10474874;28;20036;-70
2023/06/12 14:58:51;;;;;;;9.10;6.35;;;30.30;52.00;;;;;;10480887;28;20017;-72
2023/06/12 15:03:51;;;;;;;9.25;5.90;;;30.30;51.90;;;;;;10481933;28;20020;-72
2023/06/12 15:08:52;;;;;;;8.30;6.00;;;30.30;51.80;;;;;;10489293;28;20036;-70
2023/06/12 15:13:53;;;;;;;7.07;6.28;;;30.40;51.60;;;;;;10473556;28;20032;-71
2023/06/12 15:18:53;;;;;;;6.95;6.10;;;30.40;51.20;;;;;;10479121;28;20031;-71
2023/06/12 15:23:54;;;;;;;8.65;6.82;;;30.20;51.50;;;;;;10483572;28;20031;-72
2023/06/12 15:28:55;;;;;;;7.63;5.93;;;30.20;51.30;;;;;;10482503;28;20112;-72
2023/06/12 15:33:55;;;;;;;7.75;6.40;;;30.20;51.40;;;;;;10486446;28;20029;-71
2023/06/12 15:38:57;;;;;;;7.72;6.38;;;30.20;51.00;;;;;;10480431;28;20028;-71
2023/06/12 15:43:58;;;;;;;9.32;6.47;;;30.20;50.90;;;;;;10479964;28;20435;-71
2023/06/12 15:48:59;;;;;;;7.38;6.18;;;30.10;51.10;;;;;;10479415;28;20082;-71
2023/06/12 15:53:59;;;;;;;9.63;6.32;;;30.10;51.50;;;;;;10480740;28;20078;-71
2023/06/12 15:59:00;;;;;;;7.57;6.30;;;29.90;52.00;;;;;;10478242;28;20082;-73
2023/06/12 16:04:09;;;;;;;7.97;6.20;;;29.70;52.20;;;;;;10487741;28;20107;-72
2023/06/12 16:09:10;;;;;;;8.48;6.55;;;29.60;52.10;;;;;;10477218;28;20024;-73
2023/06/12 16:14:11;;;;;;;8.57;6.55;;;29.40;52.70;;;;;;10472444;28;20020;-71
2023/06/12 16:19:11;;;;;;;7.35;6.60;;;29.20;53.00;;;;;;10481538;28;20035;-70
2023/06/12 16:24:12;;;;;;;7.55;6.75;;;29.10;53.30;;;;;;10489914;28;20495;-71
2023/06/12 16:29:12;;;;;;;7.95;6.60;;;28.80;53.40;;;;;;10493288;28;20040;-70
2023/06/12 16:34:13;;;;;;;8.30;7.00;;;28.70;53.40;;;;;;10467238;28;20036;-69
2023/06/12 16:39:14;;;;;;;8.35;6.43;;;28.60;53.60;;;;;;10489137;28;20076;-70
2023/06/12 16:44:14;;;;;;;9.63;6.78;;;28.50;53.60;;;;;;10486578;28;20073;-71
2023/06/12 16:49:15;;;;;;;8.98;6.65;;;28.40;53.70;;;;;;10483797;28;20024;-70
2023/06/12 16:54:15;;;;;;;7.47;6.40;;;28.30;53.90;;;;;;10483966;28;20075;-70
2023/06/12 16:59:16;;;;;;;9.88;6.75;;;28.20;54.10;;;;;;10485080;28;20019;-71
2023/06/12 17:04:17;;;;;;;8.15;6.97;;;28.20;54.00;;;;;;10487100;28;20028;-72
2023/06/12 17:09:17;;;;;;;8.10;6.70;;;28.10;53.90;;;;;;10476223;28;20454;-72
2023/06/12 17:14:18;;;;;;;7.60;6.53;;;27.90;54.10;;;;;;10479596;28;20500;-71
2023/06/12 17:19:18;;;;;;;7.95;6.47;;;27.80;54.30;;;;;;10486395;28;20047;-71
2023/06/12 17:24:19;;;;;;;10.23;6.32;;;27.70;54.40;;;;;;10486099;28;20035;-71
2023/06/12 17:29:19;;;;;;;9.35;6.85;;;27.70;54.40;;;;;;10489980;28;20024;-69
2023/06/12 17:34:20;;;;;;;11.68;6.35;;;27.60;54.60;;;;;;10482024;28;20028;-69
2023/06/12 17:39:21;;;;;;;9.10;6.22;;;27.60;54.70;;;;;;10485756;28;20016;-70
2023/06/12 17:44:25;;;;;;;11.57;7.03;;;27.60;54.80;;;;;;10481090;28;20044;-70
2023/06/12 17:49:25;;;;;;;8.52;6.25;;;27.50;55.40;;;;;;10468642;28;20025;-71
2023/06/12 17:54:26;;;;;;;9.10;6.20;;;27.50;55.50;;;;;;10478128;28;20041;-70
2023/06/12 17:59:26;;;;;;;12.43;6.38;;;27.50;55.90;;;;;;10474651;28;20052;-71
2023/06/12 18:04:27;;;;;;;9.88;6.40;;;27.30;55.60;;;;;;10484663;28;20888;-72
2023/06/12 18:09:27;;;;;;;9.25;6.47;;;27.20;55.80;;;;;;10467900;28;20403;-71
2023/06/12 18:14:28;;;;;;;8.07;5.72;;;27.20;56.00;;;;;;10470217;28;20029;-72
2023/06/12 18:19:29;;;;;;;9.98;6.28;;;27.20;55.80;;;;;;10481762;28;20025;-71
2023/06/12 18:24:29;;;;;;;7.60;5.90;;;27.10;55.70;;;;;;10477244;28;20044;-70
2023/06/12 18:29:30;;;;;;;6.68;5.45;;;27.00;55.90;;;;;;10475600;28;20017;-70
2023/06/12 18:34:32;;;;;;;6.95;5.55;;;26.90;55.70;;;;;;10484965;28;20055;-70
2023/06/12 18:39:33;;;;;;;8.25;5.63;;;26.90;55.60;;;;;;10476464;28;20705;-70
2023/06/12 18:44:34;;;;;;;9.20;5.40;;;26.80;55.50;;;;;;10478299;28;20040;-70
2023/06/12 18:49:35;;;;;;;7.03;5.20;;;26.70;55.30;;;;;;10470732;28;20063;-70
2023/06/12 18:54:36;;;;;;;5.38;4.80;;;26.70;55.90;;;;;;10483753;28;20089;-70
2023/06/12 18:59:37;;;;;;;8.63;5.00;;;26.50;55.20;;;;;;10469189;28;20021;-71
2023/06/12 19:04:38;;;;;;;8.05;5.13;;;26.40;55.30;;;;;;10464740;28;20492;-70
2023/06/12 19:09:38;;;;;;;10.27;5.75;;;26.40;55.40;;;;;;10474211;28;20036;-69
2023/06/12 19:14:39;;;;;;;5.93;5.25;;;26.30;55.40;;;;;;10477537;28;20040;-71
2023/06/12 19:19:39;;;;;;;7.10;5.28;;;26.20;55.50;;;;;;10477432;28;20028;-71
2023/06/12 19:24:40;;;;;;;7.25;5.18;;;26.10;55.60;;;;;;10474946;28;20025;-71
2023/06/12 19:29:41;;;;;;;9.43;5.10;;;26.00;55.70;;;;;;10470461;28;20492;-70
2023/06/12 19:34:42;;;;;;;6.60;5.10;;;25.90;55.80;;;;;;10475973;28;20020;-70
2023/06/12 19:39:43;;;;;;;9.48;4.75;;;25.80;56.10;;;;;;10478729;28;20499;-71
2023/06/12 19:44:44;;;;;;;6.22;4.93;;;25.70;56.30;;;;;;10479480;28;20021;-70
2023/06/12 19:49:47;;;;;;;6.80;4.68;;;25.50;56.20;;;;;;10481271;28;20083;-71
2023/06/12 19:54:47;;;;;;;7.40;4.72;;;25.40;56.30;;;;;;10480352;28;20055;-70
2023/06/12 19:59:48;;;;;;;6.35;4.22;;;25.30;56.40;;;;;;10483135;28;20101;-70
2023/06/12 20:04:48;;;;;;;6.95;4.15;;;25.20;56.60;;;;;;10473071;28;20024;-71
2023/06/12 20:09:49;;;;;;;10.02;4.35;;;25.20;57.30;;;;;;10475607;28;20119;-71
2023/06/12 20:14:51;;;;;;;5.03;4.00;;;25.00;56.70;;;;;;10464100;28;20025;-70
2023/06/12 20:19:51;;;;;;;8.48;4.32;;;24.90;56.90;;;;;;10454612;28;20020;-71
2023/06/12 20:24:52;;;;;;;9.90;4.80;;;24.80;57.00;;;;;;10475940;28;20025;-70
2023/06/12 20:29:54;;;;;;;9.88;4.10;;;24.70;57.10;;;;;;10469571;28;20036;-72
2023/06/12 20:34:55;;;;;;;8.32;4.05;;;24.50;57.10;;;;;;10464985;28;20115;-71
2023/06/12 20:39:57;;;;;;;5.43;3.88;;;24.40;57.00;;;;;;10463413;28;20074;-71
2023/06/12 20:44:58;;;;;;;7.53;3.67;;;24.20;57.80;;;;;;10463355;28;20039;-70
2023/06/12 20:49:58;;;;;;;9.63;4.22;;;24.10;57.20;;;;;;10470306;28;20023;-70
2023/06/12 20:54:59;;;;;;;6.25;4.38;;;24.10;57.20;;;;;;10470610;28;20068;-70
2023/06/12 21:00:00;;;;;;;7.50;4.03;;;24.00;57.20;;;;;;10473072;28;20055;-70
2023/06/12 21:05:01;;;;;;;6.55;4.20;;;24.00;57.40;;;;;;10456816;28;20020;-70
2023/06/12 21:10:03;;;;;;;7.40;4.22;;;23.90;57.50;;;;;;10466441;28;20382;-68
2023/06/12 21:15:08;;;;;;;7.45;4.03;;;23.90;57.40;;;;;;10467990;28;20085;-69
2023/06/12 21:20:09;;;;;;;8.02;3.85;;;24.00;57.50;;;;;;10470433;28;20082;-69
2023/06/12 21:25:12;;;;;;;5.72;3.85;;;24.10;57.40;;;;;;10463859;28;20016;-69
2023/06/12 21:30:13;;;;;;;6.28;3.83;;;24.20;57.30;;;;;;10460902;28;20020;-68
2023/06/12 21:35:14;;;;;;;4.95;3.88;;;24.40;57.30;;;;;;10473611;28;20029;-69
2023/06/12 21:40:15;;;;;;;7.35;3.65;;;24.40;57.30;;;;;;10475751;28;20052;-69
2023/06/12 21:45:15;;;;;;;5.30;3.72;;;24.50;57.50;;;;;;10467627;28;20466;-68
2023/06/12 21:50:16;;;;;;;8.90;4.03;;;24.50;57.60;;;;;;10466059;28;20035;-69
2023/06/12 21:55:16;;;;;;;7.07;3.80;;;24.50;57.60;;;;;;10467524;28;20031;-69
2023/06/12 22:00:18;;;;;;;4.82;3.47;;;24.40;57.60;;;;;;10470640;28;20021;-68
2023/06/12 22:05:18;;;;;;;4.78;3.65;;;24.50;57.80;;;;;;10470281;28;20024;-69
2023/06/12 22:10:19;;;;;;;3.63;3.28;;;24.50;57.80;;;;;;10467287;28;20086;-68
2023/06/12 22:15:20;;;;;;;6.15;3.63;;;24.50;57.80;;;;;;10478103;28;20107;-68
2023/06/12 22:20:21;;;;;;;5.40;3.35;;;24.50;58.00;;;;;;10470920;28;20029;-68
2023/06/12 22:25:21;;;;;;;9.57;3.90;;;24.50;58.00;;;;;;10474135;28;20029;-69
2023/06/12 22:30:22;;;;;;;4.57;3.67;;;24.50;58.10;;;;;;10477658;28;20400;-69
2023/06/12 22:35:22;;;;;;;4.63;3.45;;;24.50;58.20;;;;;;10471565;28;20112;-69
2023/06/12 22:40:24;;;;;;;4.75;3.42;;;24.50;58.30;;;;;;10466360;28;20021;-69
2023/06/12 22:45:25;;;;;;;4.20;3.28;;;24.40;58.30;;;;;;10475998;28;20033;-68
2023/06/12 22:50:25;;;;;;;3.85;3.25;;;24.40;58.40;;;;;;10470453;28;20346;-69
2023/06/12 22:55:26;;;;;;;4.30;3.30;;;24.40;58.40;;;;;;10460388;28;20068;-69
2023/06/12 23:00:26;;;;;;;4.57;3.40;;;24.40;58.50;;;;;;10473877;28;20634;-68
2023/06/12 23:05:27;;;;;;;4.03;3.55;;;24.30;58.60;;;;;;10477479;28;20040;-68
2023/06/12 23:10:28;;;;;;;4.47;3.60;;;24.30;58.60;;;;;;10482974;28;20040;-69
2023/06/12 23:15:28;;;;;;;4.35;3.30;;;24.30;58.70;;;;;;10470155;28;20036;-68
2023/06/12 23:20:29;;;;;;;4.53;3.55;;;24.30;58.70;;;;;;10479289;28;20027;-68
2023/06/12 23:25:30;;;;;;;4.30;3.75;;;24.20;58.70;;;;;;10478636;28;20032;-68
2023/06/12 23:30:31;;;;;;;4.97;3.58;;;24.20;58.80;;;;;;10466749;28;20029;-68
2023/06/12 23:35:32;;;;;;;4.15;3.65;;;24.10;58.80;;;;;;10473107;28;20029;-68
2023/06/12 23:40:33;;;;;;;3.78;3.35;;;24.10;58.80;;;;;;10470509;28;20017;-68
2023/06/12 23:45:33;;;;;;;4.35;3.40;;;24.10;58.90;;;;;;10470164;28;20029;-68
2023/06/12 23:50:34;;;;;;;5.25;3.55;;;24.10;58.90;;;;;;10475694;28;20036;-68
2023/06/12 23:55:34;;;;;;;4.93;3.78;;;24.00;58.80;;;;;;10479640;28;20105;-68
